This is the latest recevied weather packets stored in our database for station/object S50APT-10. If no packets are shown the sender has not sent any weather packets the latest 10 day(s).
| Time | Temp. | Humidity | Pressure | Rain* | Wind** | Luminosity | Snow |
|---|---|---|---|---|---|---|---|
| 1778085193 | 18.33° C | 56% | 1012.3 hPa | - | - | - | - |
| 1778084904 | 18.33° C | 56% | 1012.5 hPa | - | - | - | - |
| 1778084791 | 18.33° C | 56% | 1012.5 hPa | - | - | - | - |
| 1778084292 | 18.33° C | 56% | 1012.5 hPa | - | - | - | - |
| 1778083392 | 17.78° C | 57% | 1012.5 hPa | - | - | - | - |
| 1778082491 | 18.89° C | 54% | 1012.6 hPa | - | - | - | - |
| 1778081591 | 18.89° C | 55% | 1012.6 hPa | - | - | - | - |
| 1778080690 | 18.89° C | 55% | 1012.7 hPa | - | - | - | - |
| 1778079789 | 19.44° C | 52% | 1012.7 hPa | - | - | - | - |
| 1778078884 | 18.89° C | 52% | 1012.7 hPa | - | - | - | - |
| 1778077983 | 18.89° C | 53% | 1012.7 hPa | - | - | - | - |
| 1778077082 | 20.56° C | 48% | 1012.7 hPa | - | - | - | - |
| 1778076182 | 22.22° C | 43% | 1012.8 hPa | - | - | - | - |
| 1778075281 | 20.56° C | 48% | 1012.7 hPa | - | - | - | - |
| 1778074381 | 20° C | 51% | 1013 hPa | - | - | - | - |
| 1778073480 | 18.89° C | 52% | 1013.3 hPa | - | - | - | - |
| 1778072579 | 18.33° C | 54% | 1013.4 hPa | - | - | - | - |
| 1778071677 | 17.78° C | 55% | 1013.4 hPa | - | - | - | - |
| 1778070777 | 17.78° C | 53% | 1013.4 hPa | - | - | - | - |
| 1778069876 | 19.44° C | 49% | 1013.6 hPa | - | - | - | - |
| 1778068976 | 21.11° C | 43% | 1013.5 hPa | - | - | - | - |
| 1778068076 | 21.67° C | 43% | 1013.4 hPa | - | - | - | - |
| 1778067175 | 23.89° C | 40% | 1013.6 hPa | - | - | - | - |
| 1778066275 | 22.22° C | 42% | 1013.7 hPa | - | - | - | - |
| 1778065375 | 21.11° C | 46% | 1013.7 hPa | - | - | - | - |
* Rain since midnight (hover to see other rain measurements)
** Current wind speed in m/s (hover to see current wind gust speed)